sensor_id;sensor_type;location;lat;lon;timestamp;pressure;altitude;pressure_sealevel;temperature;humidity
6194;BME280;3130;41.564;23.280;2022-10-17T00:01:01;100112.81;;;11.90;86.04
6194;BME280;3130;41.564;23.280;2022-10-17T00:03:28;100118.66;;;11.93;86.63
6194;BME280;3130;41.564;23.280;2022-10-17T00:05:57;100121.84;;;11.98;86.39
6194;BME280;3130;41.564;23.280;2022-10-17T00:08:24;100067.75;;;11.64;86.13
6194;BME280;3130;41.564;23.280;2022-10-17T00:10:56;100126.97;;;11.98;86.26
6194;BME280;3130;41.564;23.280;2022-10-17T00:13:23;100126.84;;;12.01;86.43
6194;BME280;3130;41.564;23.280;2022-10-17T00:15:50;100131.63;;;12.08;86.60
6194;BME280;3130;41.564;23.280;2022-10-17T00:18:17;100132.88;;;12.18;86.21
6194;BME280;3130;41.564;23.280;2022-10-17T00:20:44;100100.09;;;12.05;85.65
6194;BME280;3130;41.564;23.280;2022-10-17T00:23:13;100126.06;;;12.17;85.40
6194;BME280;3130;41.564;23.280;2022-10-17T00:25:40;100131.63;;;12.08;85.70
6194;BME280;3130;41.564;23.280;2022-10-17T00:28:08;100127.81;;;11.99;86.02
6194;BME280;3130;41.564;23.280;2022-10-17T00:30:35;100130.03;;;11.88;86.29
6194;BME280;3130;41.564;23.280;2022-10-17T00:33:02;100125.13;;;11.83;86.58
6194;BME280;3130;41.564;23.280;2022-10-17T00:35:30;100129.44;;;11.83;86.75
6194;BME280;3130;41.564;23.280;2022-10-17T00:37:57;100122.69;;;11.80;86.64
6194;BME280;3130;41.564;23.280;2022-10-17T00:40:25;100125.34;;;11.79;86.80
6194;BME280;3130;41.564;23.280;2022-10-17T00:42:52;100123.75;;;11.76;86.67
6194;BME280;3130;41.564;23.280;2022-10-17T00:45:22;100123.78;;;11.75;86.96
6194;BME280;3130;41.564;23.280;2022-10-17T00:47:54;100121.31;;;11.73;86.96
6194;BME280;3130;41.564;23.280;2022-10-17T00:50:24;100125.25;;;11.62;86.96
6194;BME280;3130;41.564;23.280;2022-10-17T00:52:52;100118.81;;;11.52;87.85
6194;BME280;3130;41.564;23.280;2022-10-17T00:55:21;100079.97;;;11.21;87.69
6194;BME280;3130;41.564;23.280;2022-10-17T00:57:51;100125.00;;;11.48;88.51
6194;BME280;3130;41.564;23.280;2022-10-17T01:00:19;100027.44;;;10.91;88.40
6194;BME280;3130;41.564;23.280;2022-10-17T01:02:47;100119.44;;;11.38;88.54
6194;BME280;3130;41.564;23.280;2022-10-17T01:05:15;100113.78;;;11.30;88.90
6194;BME280;3130;41.564;23.280;2022-10-17T01:07:43;100117.56;;;11.23;89.04
6194;BME280;3130;41.564;23.280;2022-10-17T01:10:12;100102.84;;;11.07;89.30
6194;BME280;3130;41.564;23.280;2022-10-17T01:13:01;100109.47;;;11.12;90.13
6194;BME280;3130;41.564;23.280;2022-10-17T01:15:38;100106.44;;;11.03;90.06
6194;BME280;3130;41.564;23.280;2022-10-17T01:18:23;100077.41;;;10.83;90.58
6194;BME280;3130;41.564;23.280;2022-10-17T01:21:07;100099.19;;;10.93;90.89
6194;BME280;3130;41.564;23.280;2022-10-17T01:26:43;100100.25;;;10.89;90.67
6194;BME280;3130;41.564;23.280;2022-10-17T01:29:34;100112.00;;;10.94;91.17
6194;BME280;3130;41.564;23.280;2022-10-17T01:32:08;100103.63;;;10.89;91.09
6194;BME280;3130;41.564;23.280;2022-10-17T01:34:45;100113.81;;;10.91;91.20
6194;BME280;3130;41.564;23.280;2022-10-17T01:37:19;100111.34;;;10.89;91.24
6194;BME280;3130;41.564;23.280;2022-10-17T01:39:50;100116.47;;;10.89;91.44
6194;BME280;3130;41.564;23.280;2022-10-17T01:42:22;100114.88;;;10.87;91.26
6194;BME280;3130;41.564;23.280;2022-10-17T01:44:55;100115.78;;;10.86;91.33
6194;BME280;3130;41.564;23.280;2022-10-17T01:47:28;100121.03;;;10.83;91.60
6194;BME280;3130;41.564;23.280;2022-10-17T01:49:58;100119.47;;;10.79;91.67
6194;BME280;3130;41.564;23.280;2022-10-17T01:52:32;100111.09;;;10.75;91.33
6194;BME280;3130;41.564;23.280;2022-10-17T01:55:06;100091.91;;;10.64;91.41
6194;BME280;3130;41.564;23.280;2022-10-17T01:57:37;100116.91;;;10.79;91.19
6194;BME280;3130;41.564;23.280;2022-10-17T02:00:09;100101.03;;;10.71;91.22
6194;BME280;3130;41.564;23.280;2022-10-17T02:02:39;100114.34;;;10.79;91.24
6194;BME280;3130;41.564;23.280;2022-10-17T02:05:07;100120.44;;;10.76;91.18
6194;BME280;3130;41.564;23.280;2022-10-17T02:07:34;100127.50;;;10.71;91.21
6194;BME280;3130;41.564;23.280;2022-10-17T02:10:03;100036.72;;;10.14;91.68
6194;BME280;3130;41.564;23.280;2022-10-17T02:12:44;100123.56;;;10.63;91.68
6194;BME280;3130;41.564;23.280;2022-10-17T02:18:15;100136.53;;;10.60;92.12
6194;BME280;3130;41.564;23.280;2022-10-17T02:20:49;100129.22;;;10.51;92.35
6194;BME280;3130;41.564;23.280;2022-10-17T02:23:23;100057.56;;;10.05;92.14
6194;BME280;3130;41.564;23.280;2022-10-17T02:25:59;100038.63;;;9.88;92.25
6194;BME280;3130;41.564;23.280;2022-10-17T02:28:35;100133.59;;;10.47;92.58
6194;BME280;3130;41.564;23.280;2022-10-17T02:31:08;100155.78;;;10.70;92.22
6194;BME280;3130;41.564;23.280;2022-10-17T02:33:41;100142.88;;;10.71;91.69
6194;BME280;3130;41.564;23.280;2022-10-17T02:36:12;100160.03;;;10.71;90.89
6194;BME280;3130;41.564;23.280;2022-10-17T02:38:41;100033.38;;;9.91;90.26
6194;BME280;3130;41.564;23.280;2022-10-17T02:41:14;100155.25;;;10.62;90.66
6194;BME280;3130;41.564;23.280;2022-10-17T02:43:42;100162.25;;;10.58;91.13
6194;BME280;3130;41.564;23.280;2022-10-17T02:46:12;100162.38;;;10.55;91.19
6194;BME280;3130;41.564;23.280;2022-10-17T02:48:49;100167.59;;;10.52;91.40
6194;BME280;3130;41.564;23.280;2022-10-17T02:51:22;100110.88;;;10.18;91.99
6194;BME280;3130;41.564;23.280;2022-10-17T02:53:59;100157.72;;;10.43;92.06
6194;BME280;3130;41.564;23.280;2022-10-17T02:56:30;100163.09;;;10.37;92.50
6194;BME280;3130;41.564;23.280;2022-10-17T02:59:02;100102.38;;;9.95;92.67
6194;BME280;3130;41.564;23.280;2022-10-17T03:01:31;100032.47;;;9.49;93.22
6194;BME280;3130;41.564;23.280;2022-10-17T03:04:07;100167.91;;;10.23;93.67
6194;BME280;3130;41.564;23.280;2022-10-17T03:06:34;100165.47;;;10.20;93.53
6194;BME280;3130;41.564;23.280;2022-10-17T03:09:02;100163.88;;;10.18;93.87
6194;BME280;3130;41.564;23.280;2022-10-17T03:11:29;100175.72;;;10.20;93.69
6194;BME280;3130;41.564;23.280;2022-10-17T03:13:56;100175.84;;;10.17;93.27
6194;BME280;3130;41.564;23.280;2022-10-17T03:16:23;100176.53;;;10.21;93.41
6194;BME280;3130;41.564;23.280;2022-10-17T03:18:50;100178.28;;;10.20;93.38
6194;BME280;3130;41.564;23.280;2022-10-17T03:21:19;100174.25;;;10.15;93.49
6194;BME280;3130;41.564;23.280;2022-10-17T03:23:47;100180.25;;;10.14;93.78
6194;BME280;3130;41.564;23.280;2022-10-17T03:26:14;100039.38;;;9.24;93.62
6194;BME280;3130;41.564;23.280;2022-10-17T03:28:41;100105.25;;;9.65;93.37
6194;BME280;3130;41.564;23.280;2022-10-17T03:31:09;100181.25;;;10.10;93.63
6194;BME280;3130;41.564;23.280;2022-10-17T03:33:38;100162.19;;;9.94;94.03
6194;BME280;3130;41.564;23.280;2022-10-17T03:36:06;100185.72;;;10.05;93.76
6194;BME280;3130;41.564;23.280;2022-10-17T03:38:36;100184.03;;;10.04;93.83
6194;BME280;3130;41.564;23.280;2022-10-17T03:41:03;100189.16;;;10.04;93.61
6194;BME280;3130;41.564;23.280;2022-10-17T03:43:31;100190.00;;;10.04;93.01
6194;BME280;3130;41.564;23.280;2022-10-17T03:45:58;100091.56;;;9.43;92.56
6194;BME280;3130;41.564;23.280;2022-10-17T03:48:27;100133.22;;;9.71;92.16
6194;BME280;3130;41.564;23.280;2022-10-17T03:50:58;100080.53;;;9.41;92.39
6194;BME280;3130;41.564;23.280;2022-10-17T03:53:25;100074.00;;;9.34;91.94
6194;BME280;3130;41.564;23.280;2022-10-17T03:55:55;100205.13;;;10.10;91.41
6194;BME280;3130;41.564;23.280;2022-10-17T03:58:22;100201.66;;;10.13;91.16
6194;BME280;3130;41.564;23.280;2022-10-17T04:00:49;100194.66;;;10.16;91.11
6194;BME280;3130;41.564;23.280;2022-10-17T04:03:17;100203.13;;;10.18;91.06
6194;BME280;3130;41.564;23.280;2022-10-17T04:05:44;100206.72;;;10.14;90.96
6194;BME280;3130;41.564;23.280;2022-10-17T04:08:11;100195.25;;;10.02;91.86
6194;BME280;3130;41.564;23.280;2022-10-17T04:10:38;100058.69;;;9.09;92.41
6194;BME280;3130;41.564;23.280;2022-10-17T04:13:07;100136.66;;;9.47;92.75
6194;BME280;3130;41.564;23.280;2022-10-17T04:15:34;100025.94;;;8.72;93.38
6194;BME280;3130;41.564;23.280;2022-10-17T04:18:01;100213.59;;;9.67;93.94
6194;BME280;3130;41.564;23.280;2022-10-17T04:20:28;100026.47;;;8.57;94.46
6194;BME280;3130;41.564;23.280;2022-10-17T04:22:56;100169.59;;;9.33;94.48
6194;BME280;3130;41.564;23.280;2022-10-17T04:25:23;100215.44;;;9.63;94.72
6194;BME280;3130;41.564;23.280;2022-10-17T04:27:50;100137.75;;;9.17;93.60
6194;BME280;3130;41.564;23.280;2022-10-17T04:30:18;100159.34;;;9.33;93.41
6194;BME280;3130;41.564;23.280;2022-10-17T04:32:45;100211.22;;;9.62;93.17
6194;BME280;3130;41.564;23.280;2022-10-17T04:35:12;100219.78;;;9.61;93.36
6194;BME280;3130;41.564;23.280;2022-10-17T04:37:40;100081.06;;;8.80;93.20
6194;BME280;3130;41.564;23.280;2022-10-17T04:40:08;100196.31;;;9.49;93.13
6194;BME280;3130;41.564;23.280;2022-10-17T04:42:35;100219.03;;;9.58;93.31
6194;BME280;3130;41.564;23.280;2022-10-17T04:45:03;100221.72;;;9.55;93.15
6194;BME280;3130;41.564;23.280;2022-10-17T04:47:32;100125.78;;;8.93;93.09
6194;BME280;3130;41.564;23.280;2022-10-17T04:49:59;100225.38;;;9.48;93.48
6194;BME280;3130;41.564;23.280;2022-10-17T04:52:26;100225.31;;;9.49;93.35
6194;BME280;3130;41.564;23.280;2022-10-17T04:54:54;100146.09;;;8.98;93.82
6194;BME280;3130;41.564;23.280;2022-10-17T04:57:21;100238.06;;;9.51;94.11
6194;BME280;3130;41.564;23.280;2022-10-17T04:59:48;100192.91;;;9.24;93.88
6194;BME280;3130;41.564;23.280;2022-10-17T05:02:15;100177.91;;;9.15;93.42
6194;BME280;3130;41.564;23.280;2022-10-17T05:04:43;100171.16;;;9.12;93.42
6194;BME280;3130;41.564;23.280;2022-10-17T05:07:11;100206.03;;;9.39;92.25
6194;BME280;3130;41.564;23.280;2022-10-17T05:09:38;100216.13;;;9.44;92.67
6194;BME280;3130;41.564;23.280;2022-10-17T05:12:05;100123.56;;;8.84;92.30
6194;BME280;3130;41.564;23.280;2022-10-17T05:14:32;100258.09;;;9.64;92.45
6194;BME280;3130;41.564;23.280;2022-10-17T05:16:59;100262.53;;;9.59;93.10
6194;BME280;3130;41.564;23.280;2022-10-17T05:19:26;100093.75;;;8.57;92.99
6194;BME280;3130;41.564;23.280;2022-10-17T05:21:54;100256.41;;;9.63;93.91
6194;BME280;3130;41.564;23.280;2022-10-17T05:24:22;100261.44;;;9.66;93.93
6194;BME280;3130;41.564;23.280;2022-10-17T05:26:49;100260.59;;;9.66;93.64
6194;BME280;3130;41.564;23.280;2022-10-17T05:29:17;100255.91;;;9.54;93.23
6194;BME280;3130;41.564;23.280;2022-10-17T05:31:44;100276.94;;;9.62;93.21
6194;BME280;3130;41.564;23.280;2022-10-17T05:34:11;100273.66;;;9.58;93.59
6194;BME280;3130;41.564;23.280;2022-10-17T05:36:38;100290.38;;;9.68;93.34
6194;BME280;3130;41.564;23.280;2022-10-17T05:39:06;100215.06;;;9.25;92.34
6194;BME280;3130;41.564;23.280;2022-10-17T05:41:34;100206.47;;;9.27;92.07
6194;BME280;3130;41.564;23.280;2022-10-17T05:44:01;100300.16;;;9.82;91.67
6194;BME280;3130;41.564;23.280;2022-10-17T05:46:28;100273.75;;;9.80;91.53
6194;BME280;3130;41.564;23.280;2022-10-17T05:48:56;100296.16;;;9.98;91.54
6194;BME280;3130;41.564;23.280;2022-10-17T05:51:23;100297.53;;;10.07;91.03
6194;BME280;3130;41.564;23.280;2022-10-17T05:53:50;100306.56;;;10.17;91.24
6194;BME280;3130;41.564;23.280;2022-10-17T05:56:18;100300.53;;;10.18;90.74
6194;BME280;3130;41.564;23.280;2022-10-17T05:58:46;100310.63;;;10.23;90.42
6194;BME280;3130;41.564;23.280;2022-10-17T06:01:13;100272.47;;;10.15;90.17
6194;BME280;3130;41.564;23.280;2022-10-17T06:03:40;100217.22;;;9.84;89.78
6194;BME280;3130;41.564;23.280;2022-10-17T06:06:09;100304.31;;;10.54;89.70
6194;BME280;3130;41.564;23.280;2022-10-17T06:08:37;100315.25;;;10.59;88.98
6194;BME280;3130;41.564;23.280;2022-10-17T06:11:04;100282.31;;;10.49;89.19
6194;BME280;3130;41.564;23.280;2022-10-17T06:13:33;100268.63;;;10.48;88.00
6194;BME280;3130;41.564;23.280;2022-10-17T06:16:00;100308.34;;;10.83;87.53
6194;BME280;3130;41.564;23.280;2022-10-17T06:18:27;100317.34;;;10.93;86.75
6194;BME280;3130;41.564;23.280;2022-10-17T06:21:01;100318.91;;;10.97;86.01
6194;BME280;3130;41.564;23.280;2022-10-17T06:23:28;100328.81;;;11.05;85.57
6194;BME280;3130;41.564;23.280;2022-10-17T06:25:57;100335.38;;;11.12;84.48
6194;BME280;3130;41.564;23.280;2022-10-17T06:28:25;100336.06;;;11.16;84.00
6194;BME280;3130;41.564;23.280;2022-10-17T06:30:54;100292.47;;;10.95;84.82
6194;BME280;3130;41.564;23.280;2022-10-17T06:33:21;100337.22;;;11.30;84.68
6194;BME280;3130;41.564;23.280;2022-10-17T06:35:51;100347.16;;;11.38;83.82
6194;BME280;3130;41.564;23.280;2022-10-17T06:38:19;100251.66;;;10.89;83.05
6194;BME280;3130;41.564;23.280;2022-10-17T06:40:46;100318.91;;;11.38;82.69
6194;BME280;3130;41.564;23.280;2022-10-17T06:43:13;100326.25;;;11.47;81.95
6194;BME280;3130;41.564;23.280;2022-10-17T06:45:41;100345.00;;;11.70;82.08
6194;BME280;3130;41.564;23.280;2022-10-17T06:48:09;100303.75;;;11.73;82.00
6194;BME280;3130;41.564;23.280;2022-10-17T06:50:36;100346.25;;;12.20;81.20
6194;BME280;3130;41.564;23.280;2022-10-17T06:53:04;100331.81;;;12.36;80.47
6194;BME280;3130;41.564;23.280;2022-10-17T06:55:31;100339.88;;;12.84;79.09
6194;BME280;3130;41.564;23.280;2022-10-17T06:57:58;100341.59;;;13.20;77.16
6194;BME280;3130;41.564;23.280;2022-10-17T07:00:25;100345.72;;;13.58;74.63
6194;BME280;3130;41.564;23.280;2022-10-17T07:02:53;100350.72;;;13.95;70.40
6194;BME280;3130;41.564;23.280;2022-10-17T07:05:21;100360.00;;;14.31;69.47
6194;BME280;3130;41.564;23.280;2022-10-17T07:07:49;100361.09;;;14.75;69.04
6194;BME280;3130;41.564;23.280;2022-10-17T07:10:16;100266.47;;;14.58;66.78
6194;BME280;3130;41.564;23.280;2022-10-17T07:12:43;100360.50;;;15.61;63.92
6194;BME280;3130;41.564;23.280;2022-10-17T07:15:11;100363.09;;;16.04;62.20
6194;BME280;3130;41.564;23.280;2022-10-17T07:17:41;100359.00;;;16.57;58.17
6194;BME280;3130;41.564;23.280;2022-10-17T07:20:09;100357.31;;;17.11;56.85
6194;BME280;3130;41.564;23.280;2022-10-17T07:22:38;100348.16;;;17.58;54.56
6194;BME280;3130;41.564;23.280;2022-10-17T07:25:07;100357.94;;;18.43;53.89
6194;BME280;3130;41.564;23.280;2022-10-17T07:27:35;100359.97;;;19.69;48.74
6194;BME280;3130;41.564;23.280;2022-10-17T07:30:03;100344.81;;;20.74;43.97
6194;BME280;3130;41.564;23.280;2022-10-17T07:32:30;100369.63;;;21.95;39.94
6194;BME280;3130;41.564;23.280;2022-10-17T07:34:58;100272.13;;;22.64;38.53
6194;BME280;3130;41.564;23.280;2022-10-17T07:37:25;100367.06;;;24.36;36.33
6194;BME280;3130;41.564;23.280;2022-10-17T07:39:54;100238.19;;;24.75;34.52
6194;BME280;3130;41.564;23.280;2022-10-17T07:42:25;100373.19;;;26.04;32.08
6194;BME280;3130;41.564;23.280;2022-10-17T07:44:53;100379.78;;;26.34;31.67
6194;BME280;3130;41.564;23.280;2022-10-17T07:47:20;100369.88;;;27.36;30.96
6194;BME280;3130;41.564;23.280;2022-10-17T07:49:48;100352.44;;;27.90;28.66
6194;BME280;3130;41.564;23.280;2022-10-17T07:52:16;100359.97;;;28.33;27.88
6194;BME280;3130;41.564;23.280;2022-10-17T07:54:43;100294.28;;;27.76;27.82
6194;BME280;3130;41.564;23.280;2022-10-17T07:57:12;100255.38;;;27.38;28.12
6194;BME280;3130;41.564;23.280;2022-10-17T07:59:39;100236.22;;;26.88;28.12
6194;BME280;3130;41.564;23.280;2022-10-17T08:02:08;100370.84;;;27.43;28.11
6194;BME280;3130;41.564;23.280;2022-10-17T08:04:39;100248.91;;;26.02;29.48
6194;BME280;3130;41.564;23.280;2022-10-17T08:07:06;100340.19;;;26.68;29.46
6194;BME280;3130;41.564;23.280;2022-10-17T08:09:34;100359.91;;;26.39;29.40
6194;BME280;3130;41.564;23.280;2022-10-17T08:12:01;100357.97;;;25.73;30.00
6194;BME280;3130;41.564;23.280;2022-10-17T08:14:29;100346.94;;;25.69;29.94
6194;BME280;3130;41.564;23.280;2022-10-17T08:16:56;100333.75;;;25.61;31.03
6194;BME280;3130;41.564;23.280;2022-10-17T08:19:24;100330.78;;;25.12;30.61
6194;BME280;3130;41.564;23.280;2022-10-17T08:21:51;100339.13;;;24.08;32.26
6194;BME280;3130;41.564;23.280;2022-10-17T08:24:19;100336.56;;;23.61;33.50
6194;BME280;3130;41.564;23.280;2022-10-17T08:26:46;100328.88;;;22.82;34.61
6194;BME280;3130;41.564;23.280;2022-10-17T08:29:14;100241.91;;;22.02;34.92
6194;BME280;3130;41.564;23.280;2022-10-17T08:31:43;100327.38;;;22.40;36.38
6194;BME280;3130;41.564;23.280;2022-10-17T08:34:10;100256.72;;;21.71;36.58
6194;BME280;3130;41.564;23.280;2022-10-17T08:36:38;100309.09;;;21.90;37.25
6194;BME280;3130;41.564;23.280;2022-10-17T08:39:05;100324.31;;;21.54;37.57
6194;BME280;3130;41.564;23.280;2022-10-17T08:41:42;100328.34;;;21.37;38.71
6194;BME280;3130;41.564;23.280;2022-10-17T08:44:20;100320.44;;;21.17;39.48
6194;BME280;3130;41.564;23.280;2022-10-17T08:46:55;100316.28;;;20.94;39.03
6194;BME280;3130;41.564;23.280;2022-10-17T08:49:35;100313.19;;;20.67;39.01
6194;BME280;3130;41.564;23.280;2022-10-17T08:52:09;100328.16;;;20.32;40.00
6194;BME280;3130;41.564;23.280;2022-10-17T08:54:42;100322.75;;;19.90;40.81
6194;BME280;3130;41.564;23.280;2022-10-17T08:57:12;100335.69;;;19.57;41.94
6194;BME280;3130;41.564;23.280;2022-10-17T08:59:40;100323.81;;;19.42;42.28
6194;BME280;3130;41.564;23.280;2022-10-17T09:05:20;100319.66;;;19.40;44.33
6194;BME280;3130;41.564;23.280;2022-10-17T09:07:53;100323.06;;;19.29;43.53
6194;BME280;3130;41.564;23.280;2022-10-17T09:10:31;100325.91;;;19.37;44.50
6194;BME280;3130;41.564;23.280;2022-10-17T09:13:09;100323.81;;;18.96;44.21
6194;BME280;3130;41.564;23.280;2022-10-17T09:15:51;100325.94;;;19.14;44.28
6194;BME280;3130;41.564;23.280;2022-10-17T09:18:26;100327.16;;;19.21;44.31
6194;BME280;3130;41.564;23.280;2022-10-17T09:21:00;100251.47;;;18.77;44.21
6194;BME280;3130;41.564;23.280;2022-10-17T09:23:36;100322.22;;;19.29;44.70
6194;BME280;3130;41.564;23.280;2022-10-17T09:26:09;100318.00;;;19.39;44.64
6194;BME280;3130;41.564;23.280;2022-10-17T09:28:38;100323.84;;;19.53;44.16
6194;BME280;3130;41.564;23.280;2022-10-17T09:31:11;100270.91;;;19.08;43.93
6194;BME280;3130;41.564;23.280;2022-10-17T09:33:43;100307.75;;;19.48;43.95
6194;BME280;3130;41.564;23.280;2022-10-17T09:36:13;100295.16;;;19.31;43.86
6194;BME280;3130;41.564;23.280;2022-10-17T09:38:44;100304.16;;;19.38;44.40
6194;BME280;3130;41.564;23.280;2022-10-17T09:41:17;100297.94;;;19.52;45.36
6194;BME280;3130;41.564;23.280;2022-10-17T09:43:45;100160.06;;;18.83;43.36
6194;BME280;3130;41.564;23.280;2022-10-17T09:46:17;100192.50;;;19.01;43.46
6194;BME280;3130;41.564;23.280;2022-10-17T09:48:52;100284.06;;;19.51;43.38
6194;BME280;3130;41.564;23.280;2022-10-17T09:51:21;100283.78;;;19.67;44.21
6194;BME280;3130;41.564;23.280;2022-10-17T09:53:51;100284.63;;;19.78;44.28
6194;BME280;3130;41.564;23.280;2022-10-17T09:56:20;100278.38;;;19.92;43.71
6194;BME280;3130;41.564;23.280;2022-10-17T09:58:49;100248.16;;;19.89;43.94
6194;BME280;3130;41.564;23.280;2022-10-17T10:01:20;100242.31;;;19.98;43.31
6194;BME280;3130;41.564;23.280;2022-10-17T10:04:07;100274.03;;;20.14;43.15
6194;BME280;3130;41.564;23.280;2022-10-17T10:06:35;100268.94;;;20.02;42.97
6194;BME280;3130;41.564;23.280;2022-10-17T10:09:04;100272.47;;;20.01;43.53
6194;BME280;3130;41.564;23.280;2022-10-17T10:11:45;100271.44;;;20.14;43.87
6194;BME280;3130;41.564;23.280;2022-10-17T10:14:19;100266.34;;;20.24;43.20
6194;BME280;3130;41.564;23.280;2022-10-17T10:16:47;100271.44;;;20.14;41.71
6194;BME280;3130;41.564;23.280;2022-10-17T10:19:25;100202.50;;;19.85;42.95
6194;BME280;3130;41.564;23.280;2022-10-17T10:21:55;100264.91;;;20.20;42.43
6194;BME280;3130;41.564;23.280;2022-10-17T10:24:23;100251.91;;;20.09;42.28
6194;BME280;3130;41.564;23.280;2022-10-17T10:26:53;100243.47;;;20.05;42.79
6194;BME280;3130;41.564;23.280;2022-10-17T10:29:25;100238.53;;;20.02;42.72
6194;BME280;3130;41.564;23.280;2022-10-17T10:31:56;100252.38;;;20.25;42.70
6194;BME280;3130;41.564;23.280;2022-10-17T10:34:34;100252.94;;;20.28;41.87
6194;BME280;3130;41.564;23.280;2022-10-17T10:37:03;100254.13;;;20.24;42.33
6194;BME280;3130;41.564;23.280;2022-10-17T10:39:40;100155.97;;;19.81;42.21
6194;BME280;3130;41.564;23.280;2022-10-17T10:42:16;100238.25;;;20.38;41.25
6194;BME280;3130;41.564;23.280;2022-10-17T10:44:45;100244.34;;;20.59;41.50
6194;BME280;3130;41.564;23.280;2022-10-17T10:47:19;100239.69;;;20.73;41.19
6194;BME280;3130;41.564;23.280;2022-10-17T10:49:50;100223.03;;;20.65;39.15
6194;BME280;3130;41.564;23.280;2022-10-17T10:52:39;100239.13;;;20.81;39.50
6194;BME280;3130;41.564;23.280;2022-10-17T10:55:19;100211.97;;;20.72;39.73
6194;BME280;3130;41.564;23.280;2022-10-17T10:57:51;100230.44;;;20.91;38.13
6194;BME280;3130;41.564;23.280;2022-10-17T11:00:25;100227.03;;;20.80;38.08
6194;BME280;3130;41.564;23.280;2022-10-17T11:02:59;100191.50;;;20.57;37.31
6194;BME280;3130;41.564;23.280;2022-10-17T11:05:36;100210.22;;;20.73;37.93
6194;BME280;3130;41.564;23.280;2022-10-17T11:08:13;100220.44;;;20.54;37.61
6194;BME280;3130;41.564;23.280;2022-10-17T11:10:52;100209.88;;;20.55;38.38
6194;BME280;3130;41.564;23.280;2022-10-17T11:13:25;100215.44;;;20.73;37.73
6194;BME280;3130;41.564;23.280;2022-10-17T11:15:56;100200.00;;;20.81;34.83
6194;BME280;3130;41.564;23.280;2022-10-17T11:18:29;100203.56;;;21.00;34.28
6194;BME280;3130;41.564;23.280;2022-10-17T11:21:08;100204.34;;;21.12;34.49
6194;BME280;3130;41.564;23.280;2022-10-17T11:23:41;100184.81;;;21.06;33.66
6194;BME280;3130;41.564;23.280;2022-10-17T11:26:15;100200.16;;;21.20;33.79
6194;BME280;3130;41.564;23.280;2022-10-17T11:28:50;100184.81;;;21.27;33.89
6194;BME280;3130;41.564;23.280;2022-10-17T11:31:19;100166.00;;;21.23;34.19
6194;BME280;3130;41.564;23.280;2022-10-17T11:33:49;100178.06;;;21.44;34.05
6194;BME280;3130;41.564;23.280;2022-10-17T11:36:23;100166.94;;;21.42;34.86
6194;BME280;3130;41.564;23.280;2022-10-17T11:38:54;100169.47;;;21.53;34.90
6194;BME280;3130;41.564;23.280;2022-10-17T11:41:27;100155.28;;;21.67;33.25
6194;BME280;3130;41.564;23.280;2022-10-17T11:43:58;100158.28;;;21.72;33.53
6194;BME280;3130;41.564;23.280;2022-10-17T11:46:28;100158.75;;;21.77;33.63
6194;BME280;3130;41.564;23.280;2022-10-17T11:49:05;100081.31;;;21.36;33.78
6194;BME280;3130;41.564;23.280;2022-10-17T11:51:44;100153.16;;;21.91;32.80
6194;BME280;3130;41.564;23.280;2022-10-17T11:54:15;100153.59;;;21.96;33.26
6194;BME280;3130;41.564;23.280;2022-10-17T11:56:50;100137.22;;;21.94;32.91
6194;BME280;3130;41.564;23.280;2022-10-17T11:59:52;100141.50;;;22.04;32.56
6194;BME280;3130;41.564;23.280;2022-10-17T12:02:30;100146.31;;;22.09;31.82
6194;BME280;3130;41.564;23.280;2022-10-17T12:05:03;100150.31;;;22.03;31.74
6194;BME280;3130;41.564;23.280;2022-10-17T12:07:44;100130.22;;;21.94;32.13
6194;BME280;3130;41.564;23.280;2022-10-17T12:10:27;100147.44;;;22.06;32.01
6194;BME280;3130;41.564;23.280;2022-10-17T12:16:35;100126.50;;;21.97;32.45
6194;BME280;3130;41.564;23.280;2022-10-17T12:19:25;100138.75;;;22.06;32.97
6194;BME280;3130;41.564;23.280;2022-10-17T12:22:19;100143.00;;;22.07;32.94
6194;BME280;3130;41.564;23.280;2022-10-17T12:24:56;100133.50;;;21.96;32.45
6194;BME280;3130;41.564;23.280;2022-10-17T12:27:41;100140.81;;;22.02;33.04
6194;BME280;3130;41.564;23.280;2022-10-17T12:30:20;100139.72;;;22.05;33.24
6194;BME280;3130;41.564;23.280;2022-10-17T12:33:15;100133.13;;;22.10;33.56
6194;BME280;3130;41.564;23.280;2022-10-17T12:35:47;100138.38;;;22.20;32.80
6194;BME280;3130;41.564;23.280;2022-10-17T12:38:23;100133.16;;;22.20;32.45
6194;BME280;3130;41.564;23.280;2022-10-17T12:41:05;100122.13;;;22.16;32.00
6194;BME280;3130;41.564;23.280;2022-10-17T12:43:50;100133.97;;;22.20;32.27
6194;BME280;3130;41.564;23.280;2022-10-17T12:49:36;100129.28;;;22.24;31.70
6194;BME280;3130;41.564;23.280;2022-10-17T12:52:16;100128.22;;;22.26;31.26
6194;BME280;3130;41.564;23.280;2022-10-17T12:54:46;100100.94;;;22.10;32.58
6194;BME280;3130;41.564;23.280;2022-10-17T12:57:21;100126.84;;;22.32;32.53
6194;BME280;3130;41.564;23.280;2022-10-17T12:59:51;100121.38;;;22.35;32.91
6194;BME280;3130;41.564;23.280;2022-10-17T13:02:21;100115.03;;;22.37;32.59
6194;BME280;3130;41.564;23.280;2022-10-17T13:04:54;100120.53;;;22.43;32.65
6194;BME280;3130;41.564;23.280;2022-10-17T13:07:23;100111.63;;;22.46;32.86
6194;BME280;3130;41.564;23.280;2022-10-17T13:09:51;100001.06;;;21.78;33.31
6194;BME280;3130;41.564;23.280;2022-10-17T13:12:24;100110.66;;;22.47;33.59
6194;BME280;3130;41.564;23.280;2022-10-17T13:14:53;100118.19;;;22.59;33.33
6194;BME280;3130;41.564;23.280;2022-10-17T13:17:23;100088.91;;;22.46;33.25
6194;BME280;3130;41.564;23.280;2022-10-17T13:19:52;100116.28;;;22.71;32.33
6194;BME280;3130;41.564;23.280;2022-10-17T13:22:21;100125.94;;;22.61;32.44
6194;BME280;3130;41.564;23.280;2022-10-17T13:24:50;100119.47;;;22.55;33.12
6194;BME280;3130;41.564;23.280;2022-10-17T13:27:25;100126.88;;;22.50;33.38
6194;BME280;3130;41.564;23.280;2022-10-17T13:29:53;100117.66;;;22.46;33.79
6194;BME280;3130;41.564;23.280;2022-10-17T13:32:22;100121.25;;;22.55;33.45
6194;BME280;3130;41.564;23.280;2022-10-17T13:37:56;100109.69;;;22.48;32.72
6194;BME280;3130;41.564;23.280;2022-10-17T13:40:27;100118.34;;;22.48;32.83